createdAt,value
2019-01-30T00:00:29.546Z,0
2019-01-30T00:01:39.531Z,0
2019-01-30T00:02:49.498Z,0
2019-01-30T00:03:59.465Z,0
2019-01-30T00:05:09.442Z,0
2019-01-30T00:06:19.465Z,0
2019-01-30T00:07:29.443Z,0
2019-01-30T00:08:39.170Z,0
2019-01-30T00:09:49.140Z,0
2019-01-30T00:10:59.113Z,0
2019-01-30T00:12:09.852Z,0
2019-01-30T00:13:19.910Z,0
2019-01-30T00:14:29.886Z,0
2019-01-30T00:15:39.860Z,0
2019-01-30T00:16:49.833Z,0
2019-01-30T00:17:59.898Z,0
2019-01-30T00:19:09.873Z,0
2019-01-30T00:20:19.840Z,0
2019-01-30T00:21:29.812Z,0
2019-01-30T00:22:39.802Z,0
2019-01-30T00:23:49.546Z,0
2019-01-30T00:24:59.527Z,0
2019-01-30T00:26:09.499Z,0
2019-01-30T00:27:19.467Z,0
2019-01-30T00:28:29.440Z,0
2019-01-30T00:29:39.506Z,0
2019-01-30T00:30:49.564Z,0
2019-01-30T00:31:59.530Z,0
2019-01-30T00:33:09.571Z,0
2019-01-30T00:34:19.541Z,0
2019-01-30T00:35:29.559Z,0
2019-01-30T00:36:39.536Z,0
2019-01-30T00:37:49.507Z,0
2019-01-30T00:38:59.479Z,0
2019-01-30T00:40:09.198Z,0
2019-01-30T00:41:19.274Z,0
2019-01-30T00:42:29.246Z,0
2019-01-30T00:43:39.216Z,0
2019-01-30T00:44:49.193Z,0
2019-01-30T00:45:59.162Z,0
2019-01-30T00:47:18.111Z,0
2019-01-30T00:48:28.083Z,0
2019-01-30T00:49:38.055Z,0
2019-01-30T00:50:48.023Z,0
2019-01-30T00:51:58.041Z,0
2019-01-30T00:53:08.132Z,0
2019-01-30T00:54:18.117Z,0
2019-01-30T00:55:27.848Z,0
2019-01-30T00:56:37.818Z,0
2019-01-30T00:57:47.789Z,0
2019-01-30T00:58:57.831Z,0
2019-01-30T01:00:16.946Z,0
2019-01-30T01:01:26.920Z,0
2019-01-30T01:02:36.892Z,0
2019-01-30T01:03:46.866Z,0
2019-01-30T01:04:56.946Z,0
2019-01-30T01:06:06.915Z,0
2019-01-30T01:07:16.881Z,0
2019-01-30T01:08:26.855Z,0
2019-01-30T01:09:36.825Z,0
2019-01-30T01:10:46.918Z,0
2019-01-30T01:11:56.894Z,0
2019-01-30T01:13:06.863Z,0
2019-01-30T01:14:16.832Z,0
2019-01-30T01:15:26.806Z,0
2019-01-30T01:16:36.876Z,0
2019-01-30T01:17:46.851Z,0
2019-01-30T01:18:56.821Z,0
2019-01-30T01:20:06.801Z,0
2019-01-30T01:21:16.771Z,0
2019-01-30T01:22:26.898Z,0
2019-01-30T01:23:36.870Z,0
2019-01-30T01:24:46.838Z,0
2019-01-30T01:25:56.813Z,0
2019-01-30T01:27:06.781Z,0
2019-01-30T01:28:16.763Z,0
2019-01-30T01:29:26.741Z,0
2019-01-30T01:30:36.710Z,0
2019-01-30T01:31:46.681Z,0
2019-01-30T01:32:56.654Z,0
2019-01-30T01:34:06.740Z,0
2019-01-30T01:35:16.714Z,0
2019-01-30T01:36:26.682Z,0
2019-01-30T01:37:36.653Z,0
2019-01-30T01:38:46.628Z,0
2019-01-30T01:39:57.800Z,0
2019-01-30T01:41:07.827Z,0
2019-01-30T01:42:17.795Z,0
2019-01-30T01:43:27.773Z,0
2019-01-30T01:44:37.748Z,0
2019-01-30T01:45:47.778Z,0
2019-01-30T01:46:57.506Z,0
2019-01-30T01:48:07.479Z,0
2019-01-30T01:49:17.460Z,0
2019-01-30T01:50:27.428Z,0
2019-01-30T01:51:37.564Z,0
2019-01-30T01:52:47.537Z,0
2019-01-30T01:53:57.508Z,0
2019-01-30T01:55:07.492Z,0
2019-01-30T01:56:17.461Z,0
2019-01-30T01:57:27.154Z,0
2019-01-30T01:58:37.124Z,0
2019-01-30T01:59:47.219Z,0
2019-01-30T02:00:57.288Z,0
2019-01-30T02:02:07.312Z,0
2019-01-30T02:03:17.330Z,0
2019-01-30T02:04:27.315Z,0
2019-01-30T02:05:37.287Z,0
2019-01-30T02:06:47.253Z,0
2019-01-30T02:07:57.226Z,0
2019-01-30T02:09:07.244Z,0
2019-01-30T02:10:17.213Z,0
2019-01-30T02:11:27.182Z,0
2019-01-30T02:12:37.259Z,0
2019-01-30T02:13:47.227Z,0
2019-01-30T02:14:56.993Z,0
2019-01-30T02:16:06.975Z,0
2019-01-30T02:17:16.947Z,0
2019-01-30T02:18:26.916Z,0
2019-01-30T02:19:36.891Z,0
2019-01-30T02:20:46.873Z,0
2019-01-30T02:21:56.843Z,0
2019-01-30T02:23:06.845Z,0
2019-01-30T02:24:16.815Z,0
2019-01-30T02:25:26.469Z,0
2019-01-30T02:26:36.443Z,0
2019-01-30T02:27:46.421Z,0
2019-01-30T02:28:56.390Z,0
2019-01-30T02:30:06.389Z,0
2019-01-30T02:31:16.366Z,0
2019-01-30T02:32:26.461Z,0
2019-01-30T02:33:36.435Z,0
2019-01-30T02:34:46.468Z,0
2019-01-30T02:35:56.442Z,0
2019-01-30T02:37:06.441Z,0
2019-01-30T02:38:16.466Z,0
2019-01-30T02:39:26.435Z,0
2019-01-30T02:40:35.847Z,0
2019-01-30T02:41:45.818Z,0
2019-01-30T02:42:55.535Z,0
2019-01-30T02:44:05.506Z,0
2019-01-30T02:45:15.481Z,0
2019-01-30T02:46:25.466Z,0
2019-01-30T02:47:35.200Z,0
2019-01-30T02:48:45.181Z,0
2019-01-30T02:49:55.256Z,0
2019-01-30T02:51:05.233Z,0
2019-01-30T02:52:15.211Z,0
2019-01-30T02:53:25.201Z,0
2019-01-30T02:54:35.274Z,0
2019-01-30T02:55:45.107Z,0
2019-01-30T02:56:55.078Z,0
2019-01-30T02:58:05.053Z,0
2019-01-30T02:59:15.040Z,0
2019-01-30T03:00:25.014Z,0
2019-01-30T03:01:35.144Z,0
2019-01-30T03:02:45.120Z,0
2019-01-30T03:03:55.115Z,0
2019-01-30T03:05:05.116Z,0
2019-01-30T03:06:15.103Z,0
2019-01-30T03:07:25.225Z,0
2019-01-30T03:08:35.195Z,0
2019-01-30T03:09:45.169Z,0
2019-01-30T03:10:55.141Z,0
2019-01-30T03:12:05.113Z,0
2019-01-30T03:13:15.219Z,0
2019-01-30T03:14:25.190Z,0
2019-01-30T03:15:35.162Z,0
2019-01-30T03:16:45.142Z,0
2019-01-30T03:17:55.122Z,0
2019-01-30T03:19:05.100Z,0
2019-01-30T03:20:15.075Z,0
2019-01-30T03:21:25.045Z,0
2019-01-30T03:22:35.023Z,0
2019-01-30T03:23:44.997Z,0
2019-01-30T03:24:55.114Z,0
2019-01-30T03:26:04.843Z,0
2019-01-30T03:27:14.820Z,0
2019-01-30T03:28:24.791Z,0
2019-01-30T03:29:34.754Z,0
2019-01-30T03:30:44.832Z,0
2019-01-30T03:31:54.818Z,0
2019-01-30T03:33:04.943Z,0
2019-01-30T03:34:14.946Z,0
2019-01-30T03:35:24.918Z,0
2019-01-30T03:36:34.988Z,0
2019-01-30T03:37:44.960Z,0
2019-01-30T03:38:54.935Z,0
2019-01-30T03:40:04.953Z,0
2019-01-30T03:41:14.670Z,0
2019-01-30T03:42:24.688Z,0
2019-01-30T03:43:34.671Z,0
2019-01-30T03:44:44.641Z,0
2019-01-30T03:45:54.628Z,0
2019-01-30T03:47:04.606Z,0
2019-01-30T03:48:14.679Z,0
2019-01-30T03:49:24.656Z,0
2019-01-30T03:50:34.467Z,0
2019-01-30T03:51:44.449Z,0
2019-01-30T03:52:54.415Z,0
2019-01-30T03:54:04.441Z,0
2019-01-30T03:55:14.422Z,0
2019-01-30T03:56:24.395Z,0
2019-01-30T03:57:35.959Z,0
2019-01-30T03:58:45.932Z,0
2019-01-30T03:59:55.966Z,0
2019-01-30T04:01:05.950Z,0
2019-01-30T04:02:15.600Z,0
2019-01-30T04:03:25.569Z,0
2019-01-30T04:04:35.555Z,0
2019-01-30T04:05:45.623Z,0
2019-01-30T04:06:55.598Z,0
2019-01-30T04:08:05.672Z,0
2019-01-30T04:09:15.653Z,0
2019-01-30T04:10:25.634Z,0
2019-01-30T04:11:35.658Z,0
2019-01-30T04:12:45.642Z,0
2019-01-30T04:13:55.619Z,0
2019-01-30T04:15:08.267Z,0
2019-01-30T04:16:17.986Z,0
2019-01-30T04:17:28.065Z,0
2019-01-30T04:18:38.047Z,0
2019-01-30T04:19:48.038Z,0
2019-01-30T04:20:58.127Z,0
2019-01-30T04:22:08.123Z,0
2019-01-30T04:23:18.150Z,0
2019-01-30T04:24:27.903Z,0
2019-01-30T04:25:37.885Z,0
2019-01-30T04:26:47.861Z,0
2019-01-30T04:27:57.845Z,0
2019-01-30T04:29:07.916Z,0
2019-01-30T04:30:17.896Z,0
2019-01-30T04:31:37.773Z,0
2019-01-30T04:32:48.356Z,0
2019-01-30T04:33:58.333Z,0
2019-01-30T04:35:08.207Z,0
2019-01-30T04:36:18.185Z,0
2019-01-30T04:37:28.158Z,0
2019-01-30T04:38:38.128Z,0
2019-01-30T04:39:48.098Z,0
2019-01-30T04:40:58.181Z,0
2019-01-30T04:42:08.152Z,0
2019-01-30T04:43:18.127Z,0
2019-01-30T04:44:28.105Z,0
2019-01-30T04:45:38.114Z,0
2019-01-30T04:46:48.136Z,0
2019-01-30T04:47:58.199Z,0
2019-01-30T04:49:08.178Z,0
2019-01-30T04:50:17.905Z,0
2019-01-30T04:51:27.548Z,0
2019-01-30T04:52:37.569Z,0
2019-01-30T04:53:47.547Z,0
2019-01-30T04:54:57.517Z,0
2019-01-30T04:56:07.257Z,0
2019-01-30T04:57:17.232Z,0
2019-01-30T04:58:27.206Z,0
2019-01-30T04:59:37.176Z,0
2019-01-30T05:00:47.174Z,0
2019-01-30T05:01:57.345Z,0
2019-01-30T05:03:07.319Z,0
2019-01-30T05:04:17.400Z,0
2019-01-30T05:05:27.419Z,0
2019-01-30T05:06:37.396Z,0
2019-01-30T05:07:47.367Z,0
2019-01-30T05:08:58.557Z,0
2019-01-30T05:10:08.626Z,0
2019-01-30T05:11:18.601Z,0
2019-01-30T05:12:28.642Z,0
2019-01-30T05:13:38.615Z,0
2019-01-30T05:14:48.582Z,0
2019-01-30T05:15:58.654Z,0
2019-01-30T05:17:08.640Z,0
2019-01-30T05:18:18.619Z,0
2019-01-30T05:19:28.589Z,0
2019-01-30T05:20:38.583Z,0
2019-01-30T05:21:48.607Z,0
2019-01-30T05:22:58.576Z,0
2019-01-30T05:24:08.568Z,0
2019-01-30T05:25:18.554Z,0
2019-01-30T05:26:28.533Z,0
2019-01-30T05:27:38.606Z,0
2019-01-30T05:28:48.602Z,0
2019-01-30T05:29:58.573Z,0
2019-01-30T05:31:08.294Z,0
2019-01-30T05:32:18.260Z,0
2019-01-30T05:33:28.349Z,0
2019-01-30T05:34:38.316Z,0
2019-01-30T05:35:48.319Z,0
2019-01-30T05:36:58.292Z,0
2019-01-30T05:38:08.272Z,0
2019-01-30T05:39:18.362Z,0
2019-01-30T05:40:28.089Z,0
2019-01-30T05:41:38.070Z,0
2019-01-30T05:42:48.040Z,0
2019-01-30T05:43:58.010Z,0
2019-01-30T05:45:08.105Z,0
2019-01-30T05:46:18.089Z,0
2019-01-30T05:47:28.070Z,0
2019-01-30T05:48:38.070Z,0
2019-01-30T05:49:48.046Z,0
2019-01-30T05:50:58.080Z,0
2019-01-30T05:52:08.051Z,0
2019-01-30T05:53:18.021Z,0
2019-01-30T05:54:28.009Z,0
2019-01-30T05:55:37.984Z,0
2019-01-30T05:56:48.116Z,0
2019-01-30T05:57:58.099Z,0
2019-01-30T05:59:08.115Z,0
2019-01-30T06:00:18.088Z,0
2019-01-30T06:01:28.059Z,0
2019-01-30T06:02:38.127Z,0
2019-01-30T06:03:48.112Z,0
2019-01-30T06:04:58.084Z,0
2019-01-30T06:06:08.059Z,0
2019-01-30T06:07:18.034Z,0
2019-01-30T06:08:28.213Z,0
2019-01-30T06:09:38.195Z,0
2019-01-30T06:10:48.173Z,0
2019-01-30T06:11:58.153Z,0
2019-01-30T06:13:08.125Z,0
2019-01-30T06:14:18.204Z,0
2019-01-30T06:15:28.248Z,0
2019-01-30T06:16:37.895Z,0
2019-01-30T06:17:47.933Z,0
2019-01-30T06:18:57.922Z,0
2019-01-30T06:20:08.005Z,0
2019-01-30T06:21:18.070Z,0
2019-01-30T06:22:27.804Z,0
2019-01-30T06:23:37.779Z,0
2019-01-30T06:24:47.760Z,0
2019-01-30T06:25:57.476Z,0
2019-01-30T06:27:07.456Z,0
2019-01-30T06:28:17.461Z,0
2019-01-30T06:29:27.432Z,0
2019-01-30T06:30:37.417Z,0
2019-01-30T06:31:47.441Z,0
2019-01-30T06:32:57.411Z,0
2019-01-30T06:34:07.396Z,0
2019-01-30T06:35:17.368Z,0
2019-01-30T06:36:27.342Z,0
2019-01-30T06:37:37.428Z,0
2019-01-30T06:38:47.075Z,0
2019-01-30T06:39:57.057Z,0
2019-01-30T06:41:07.028Z,0
2019-01-30T06:42:16.747Z,0
2019-01-30T06:43:26.777Z,0
2019-01-30T06:44:36.749Z,0
2019-01-30T06:45:46.717Z,0
2019-01-30T06:46:56.686Z,0
2019-01-30T06:48:06.657Z,0
2019-01-30T06:49:16.726Z,0
2019-01-30T06:50:26.700Z,4
2019-01-30T06:51:36.675Z,4
2019-01-30T06:52:46.660Z,4
2019-01-30T06:53:56.636Z,0
2019-01-30T06:55:06.655Z,4
2019-01-30T06:56:16.629Z,4
2019-01-30T06:57:26.596Z,4
2019-01-30T06:58:36.570Z,4
2019-01-30T06:59:46.543Z,4
2019-01-30T07:00:57.669Z,4
2019-01-30T07:02:07.640Z,8
2019-01-30T07:03:17.612Z,8
2019-01-30T07:04:27.598Z,8
2019-01-30T07:05:37.575Z,8
2019-01-30T07:06:47.605Z,12
2019-01-30T07:07:57.604Z,12
2019-01-30T07:09:07.577Z,16
2019-01-30T07:10:17.555Z,16
2019-01-30T07:11:27.289Z,20
2019-01-30T07:12:37.266Z,20
2019-01-30T07:13:47.277Z,24
2019-01-30T07:14:57.326Z,28
2019-01-30T07:16:07.301Z,32
2019-01-30T07:17:17.270Z,36
2019-01-30T07:18:27.348Z,44
2019-01-30T07:19:37.328Z,48
2019-01-30T07:20:47.306Z,52
2019-01-30T07:21:57.279Z,60
2019-01-30T07:23:07.253Z,68
2019-01-30T07:24:17.323Z,72
2019-01-30T07:25:27.043Z,80
2019-01-30T07:26:37.018Z,88
2019-01-30T07:27:46.989Z,96
2019-01-30T07:28:56.961Z,112
2019-01-30T07:30:06.833Z,124
2019-01-30T07:31:19.099Z,136
2019-01-30T07:32:29.250Z,152
2019-01-30T07:33:39.226Z,164
2019-01-30T07:34:49.202Z,180
2019-01-30T07:35:59.022Z,192
2019-01-30T07:37:08.996Z,208
2019-01-30T07:38:18.969Z,224
2019-01-30T07:39:28.946Z,236
2019-01-30T07:40:38.916Z,256
2019-01-30T07:41:48.985Z,272
2019-01-30T07:42:58.966Z,292
2019-01-30T07:44:09.029Z,312
2019-01-30T07:45:18.783Z,336
2019-01-30T07:46:28.758Z,360
2019-01-30T07:47:38.832Z,384
2019-01-30T07:48:48.804Z,412
2019-01-30T07:49:58.541Z,440
2019-01-30T07:51:08.514Z,464
2019-01-30T07:52:18.487Z,488
2019-01-30T07:53:28.567Z,512
2019-01-30T07:54:38.540Z,532
2019-01-30T07:55:48.511Z,560
2019-01-30T07:56:58.481Z,584
2019-01-30T07:58:10.720Z,616
2019-01-30T07:59:20.789Z,644
2019-01-30T08:00:30.771Z,672
2019-01-30T08:01:40.749Z,692
2019-01-30T08:02:59.725Z,716
2019-01-30T08:04:09.800Z,744
2019-01-30T08:05:22.351Z,784
2019-01-30T08:06:32.689Z,836
2019-01-30T08:07:42.673Z,876
2019-01-30T08:08:54.517Z,912
2019-01-30T08:10:04.497Z,948
2019-01-30T08:11:14.774Z,980
2019-01-30T08:12:24.756Z,1020
2019-01-30T08:13:34.731Z,1048
2019-01-30T08:14:44.701Z,1080
2019-01-30T08:15:54.669Z,1108
2019-01-30T08:17:04.693Z,1136
2019-01-30T08:18:14.667Z,1176
2019-01-30T08:19:24.665Z,1216
2019-01-30T08:20:34.390Z,1248
2019-01-30T08:21:44.198Z,1292
2019-01-30T08:22:54.392Z,1328
2019-01-30T08:24:05.590Z,1372
2019-01-30T08:25:16.391Z,1428
2019-01-30T08:26:28.555Z,1456
2019-01-30T08:27:41.935Z,1504
2019-01-30T08:28:53.249Z,1532
2019-01-30T08:30:03.953Z,1564
2019-01-30T08:31:14.198Z,1600
2019-01-30T08:32:27.191Z,1628
2019-01-30T08:33:37.570Z,1664
2019-01-30T08:34:47.591Z,1692
2019-01-30T08:35:57.559Z,1748
2019-01-30T08:37:07.528Z,1788
2019-01-30T08:38:17.497Z,1812
2019-01-30T08:39:27.470Z,1840
2019-01-30T08:40:37.626Z,1884
2019-01-30T08:41:47.602Z,1912
2019-01-30T08:42:59.093Z,1944
2019-01-30T08:44:09.069Z,1952
2019-01-30T08:45:18.718Z,1980
2019-01-30T08:46:28.793Z,2032
2019-01-30T08:47:38.762Z,2084
2019-01-30T08:48:48.733Z,2140
2019-01-30T08:49:58.706Z,2192
2019-01-30T08:51:08.367Z,2256
2019-01-30T08:52:18.442Z,2312
2019-01-30T08:53:28.412Z,2348
2019-01-30T08:54:38.392Z,2368
2019-01-30T08:55:48.373Z,2384
2019-01-30T08:56:59.873Z,2432
2019-01-30T08:58:10.160Z,2496
2019-01-30T08:59:20.179Z,2552
2019-01-30T09:00:30.163Z,2580
2019-01-30T09:01:40.138Z,2564
2019-01-30T09:02:50.122Z,2584
2019-01-30T09:04:00.147Z,2596
2019-01-30T09:05:10.121Z,2576
2019-01-30T09:06:20.099Z,2604
2019-01-30T09:07:29.818Z,2648
2019-01-30T09:08:39.794Z,2652
2019-01-30T09:09:49.764Z,2700
2019-01-30T09:10:59.734Z,2724
2019-01-30T09:12:09.720Z,2748
2019-01-30T09:13:19.690Z,2812
2019-01-30T09:14:29.424Z,2868
2019-01-30T09:15:39.502Z,2968
2019-01-30T09:16:49.493Z,3048
2019-01-30T09:17:59.473Z,3120
2019-01-30T09:19:09.449Z,3136
2019-01-30T09:20:19.171Z,3160
2019-01-30T09:21:29.292Z,3188
2019-01-30T09:22:39.262Z,3260
2019-01-30T09:23:49.337Z,3364
2019-01-30T09:24:59.315Z,3456
2019-01-30T09:26:09.296Z,3616
2019-01-30T09:27:19.424Z,3728
2019-01-30T09:28:31.871Z,3808
2019-01-30T09:29:41.843Z,3836
2019-01-30T09:30:51.820Z,3788
2019-01-30T09:32:01.795Z,3768
2019-01-30T09:33:11.913Z,3820
2019-01-30T09:34:33.233Z,3896
2019-01-30T09:35:43.362Z,3932
2019-01-30T09:36:53.347Z,3932
2019-01-30T09:38:03.154Z,3912
2019-01-30T09:39:13.127Z,3908
2019-01-30T09:40:23.155Z,3868
2019-01-30T09:41:33.132Z,3892
2019-01-30T09:42:45.454Z,3952
2019-01-30T09:43:55.915Z,3984
2019-01-30T09:45:05.947Z,4016
2019-01-30T09:46:17.689Z,4028
2019-01-30T09:47:27.705Z,4080
2019-01-30T09:48:39.464Z,4180
2019-01-30T09:49:49.523Z,4188
2019-01-30T09:50:59.751Z,4176
2019-01-30T09:52:09.834Z,4188
2019-01-30T09:53:19.852Z,4264
2019-01-30T09:54:29.887Z,4256
2019-01-30T09:55:39.960Z,4272
2019-01-30T09:56:50.099Z,4340
2019-01-30T09:58:00.110Z,4380
2019-01-30T09:59:10.088Z,3976
2019-01-30T10:00:20.066Z,4008
2019-01-30T10:01:30.039Z,4032
2019-01-30T10:02:40.020Z,4072
2019-01-30T10:03:49.998Z,4568
2019-01-30T10:04:59.983Z,4620
2019-01-30T10:06:10.082Z,4596
2019-01-30T10:07:20.064Z,4600
2019-01-30T10:08:30.043Z,4580
2019-01-30T10:09:42.360Z,4540
2019-01-30T10:10:52.331Z,4564
2019-01-30T10:12:02.303Z,4592
2019-01-30T10:13:12.430Z,4636
2019-01-30T10:14:22.408Z,4620
2019-01-30T10:15:32.379Z,4620
2019-01-30T10:16:42.364Z,4696
2019-01-30T10:17:52.342Z,4788
2019-01-30T10:19:02.417Z,4820
2019-01-30T10:20:12.400Z,4840
2019-01-30T10:21:22.372Z,4892
2019-01-30T10:22:32.357Z,4896
2019-01-30T10:23:42.336Z,4996
2019-01-30T10:24:55.378Z,5048
2019-01-30T10:26:05.372Z,5064
2019-01-30T10:27:15.359Z,5000
2019-01-30T10:28:25.333Z,4932
2019-01-30T10:29:35.303Z,4932
2019-01-30T10:30:45.391Z,4928
2019-01-30T10:31:55.368Z,5012
2019-01-30T10:33:05.338Z,5144
2019-01-30T10:34:15.319Z,5180
2019-01-30T10:35:25.327Z,5148
2019-01-30T10:36:35.405Z,5044
2019-01-30T10:37:45.133Z,5000
2019-01-30T10:38:54.861Z,5048
2019-01-30T10:40:05.091Z,5060
2019-01-30T10:41:15.068Z,5052
2019-01-30T10:42:25.142Z,4944
2019-01-30T10:43:35.115Z,4792
2019-01-30T10:44:45.086Z,4736
2019-01-30T10:45:55.064Z,4812
2019-01-30T10:47:05.039Z,5000
2019-01-30T10:48:14.871Z,5144
2019-01-30T10:49:24.866Z,5260
2019-01-30T10:50:34.849Z,5344
2019-01-30T10:51:44.824Z,5456
2019-01-30T10:52:54.798Z,5504
2019-01-30T10:54:04.774Z,5648
2019-01-30T10:55:14.431Z,5684
2019-01-30T10:56:24.416Z,5708
2019-01-30T10:57:34.388Z,5776
2019-01-30T10:58:44.358Z,5744
2019-01-30T10:59:54.347Z,5748
2019-01-30T11:01:04.321Z,5740
2019-01-30T11:02:14.291Z,5784
2019-01-30T11:03:24.267Z,5820
2019-01-30T11:04:34.246Z,5896
2019-01-30T11:05:46.770Z,5876
2019-01-30T11:06:56.744Z,5864
2019-01-30T11:08:06.720Z,5816
2019-01-30T11:09:16.693Z,5864
2019-01-30T11:10:26.668Z,5844
2019-01-30T11:11:36.742Z,5800
2019-01-30T11:12:46.713Z,5832
2019-01-30T11:13:56.362Z,5832
2019-01-30T11:15:07.891Z,5888
2019-01-30T11:16:17.869Z,5940
2019-01-30T11:17:27.904Z,5964
2019-01-30T11:18:37.880Z,5992
2019-01-30T11:19:50.019Z,6004
2019-01-30T11:21:00.011Z,5952
2019-01-30T11:22:09.985Z,5848
2019-01-30T11:23:19.959Z,5828
2019-01-30T11:24:29.970Z,5760
2019-01-30T11:25:39.945Z,5600
2019-01-30T11:26:49.680Z,5452
2019-01-30T11:27:59.402Z,5296
2019-01-30T11:29:09.525Z,5252
2019-01-30T11:30:19.499Z,5348
2019-01-30T11:31:29.478Z,5448
2019-01-30T11:32:39.451Z,5492
2019-01-30T11:33:49.431Z,5496
2019-01-30T11:34:59.516Z,5576
2019-01-30T11:36:09.503Z,5684
2019-01-30T11:37:19.491Z,5648
2019-01-30T11:38:29.469Z,5628
2019-01-30T11:39:39.464Z,5744
2019-01-30T11:40:49.447Z,5904
2019-01-30T11:41:59.424Z,6000
2019-01-30T11:43:09.447Z,5900
2019-01-30T11:44:19.417Z,5804
2019-01-30T11:45:29.394Z,5892
2019-01-30T11:46:39.369Z,5952
2019-01-30T11:47:49.341Z,5984
2019-01-30T11:49:03.440Z,5852
2019-01-30T11:50:13.417Z,5648
2019-01-30T11:51:23.404Z,5864
2019-01-30T11:52:33.477Z,6148
2019-01-30T11:53:43.451Z,6228
2019-01-30T11:54:53.425Z,6164
2019-01-30T11:56:03.409Z,6144
2019-01-30T11:57:13.388Z,6096
2019-01-30T11:58:23.362Z,5980
2019-01-30T11:59:33.335Z,5848
2019-01-30T12:00:43.313Z,5784
2019-01-30T12:01:53.290Z,5896
2019-01-30T12:03:03.265Z,6004
2019-01-30T12:04:22.749Z,5976
2019-01-30T12:05:32.722Z,5880
2019-01-30T12:06:42.702Z,6004
2019-01-30T12:07:52.675Z,5952
2019-01-30T12:09:02.674Z,5700
2019-01-30T12:10:12.650Z,5760
2019-01-30T12:11:22.633Z,5816
2019-01-30T12:12:32.621Z,5660
2019-01-30T12:13:42.593Z,5520
2019-01-30T12:14:52.580Z,5584
2019-01-30T12:16:02.556Z,5812
2019-01-30T12:17:12.535Z,6080
2019-01-30T12:18:22.509Z,6088
2019-01-30T12:19:32.487Z,6012
2019-01-30T12:20:42.457Z,5840
2019-01-30T12:21:52.532Z,5624
2019-01-30T12:23:02.507Z,5704
2019-01-30T12:24:12.489Z,5944
2019-01-30T12:25:22.522Z,5888
2019-01-30T12:26:32.515Z,5692
2019-01-30T12:27:42.669Z,5692
2019-01-30T12:28:52.652Z,5744
2019-01-30T12:30:02.642Z,5624
2019-01-30T12:31:12.620Z,5512
2019-01-30T12:32:22.592Z,5512
2019-01-30T12:33:32.673Z,5492
2019-01-30T12:34:42.645Z,5520
2019-01-30T12:35:52.617Z,5584
2019-01-30T12:37:02.648Z,5752
2019-01-30T12:38:12.627Z,5796
2019-01-30T12:39:22.648Z,5664
2019-01-30T12:40:32.366Z,5548
2019-01-30T12:41:42.927Z,5584
2019-01-30T12:42:52.901Z,5520
2019-01-30T12:44:02.873Z,5316
2019-01-30T12:45:12.953Z,5144
2019-01-30T12:46:22.929Z,5192
2019-01-30T12:47:34.593Z,5296
2019-01-30T12:48:44.567Z,5348
2019-01-30T12:49:56.636Z,5344
2019-01-30T12:51:06.734Z,5388
2019-01-30T12:52:16.704Z,5492
2019-01-30T12:53:26.436Z,5436
2019-01-30T12:54:36.413Z,5412
2019-01-30T12:55:46.480Z,5464
2019-01-30T12:56:56.562Z,5288
2019-01-30T12:58:06.543Z,4908
2019-01-30T12:59:16.518Z,4840
2019-01-30T13:00:26.491Z,4908
2019-01-30T13:01:37.962Z,4920
2019-01-30T13:02:48.036Z,4876
2019-01-30T13:03:58.118Z,4704
2019-01-30T13:05:08.104Z,4736
2019-01-30T13:06:18.173Z,4720
2019-01-30T13:07:28.151Z,4708
2019-01-30T13:08:38.238Z,4556
2019-01-30T13:09:48.213Z,4404
2019-01-30T13:10:58.198Z,4344
2019-01-30T13:12:08.172Z,4400
2019-01-30T13:13:18.159Z,4332
2019-01-30T13:14:28.288Z,4216
2019-01-30T13:15:38.314Z,4260
2019-01-30T13:16:48.285Z,4284
2019-01-30T13:17:58.283Z,4204
2019-01-30T13:19:08.264Z,4152
2019-01-30T13:20:18.394Z,4044
2019-01-30T13:21:28.120Z,3952
2019-01-30T13:22:38.092Z,3932
2019-01-30T13:23:48.065Z,3928
2019-01-30T13:24:58.040Z,3912
2019-01-30T13:26:08.093Z,3852
2019-01-30T13:27:18.074Z,3792
2019-01-30T13:28:28.049Z,3776
2019-01-30T13:29:38.019Z,3776
2019-01-30T13:30:50.367Z,3684
2019-01-30T13:32:00.446Z,3576
2019-01-30T13:33:10.169Z,3508
2019-01-30T13:34:20.200Z,3508
2019-01-30T13:35:30.172Z,3568
2019-01-30T13:36:42.642Z,3640
2019-01-30T13:37:52.772Z,3592
2019-01-30T13:39:02.494Z,3460
2019-01-30T13:40:12.225Z,3356
2019-01-30T13:41:22.198Z,3264
2019-01-30T13:42:32.222Z,3188
2019-01-30T13:43:42.245Z,3144
2019-01-30T13:44:52.219Z,3160
2019-01-30T13:46:11.779Z,3208
2019-01-30T13:47:21.750Z,3172
2019-01-30T13:48:34.027Z,3204
2019-01-30T13:49:44.064Z,3204
2019-01-30T13:50:54.080Z,3100
2019-01-30T13:52:04.118Z,3012
2019-01-30T13:53:16.756Z,3040
2019-01-30T13:54:27.010Z,3028
2019-01-30T13:55:37.012Z,2892
2019-01-30T13:56:47.022Z,2776
2019-01-30T13:57:57.051Z,2724
2019-01-30T13:59:07.034Z,2696
2019-01-30T14:00:17.233Z,2644
2019-01-30T14:01:27.279Z,2584
2019-01-30T14:02:37.323Z,2476
2019-01-30T14:03:47.381Z,2380
2019-01-30T14:05:06.323Z,2352
